sensor_id;sensor_type;location;lat;lon;timestamp;P1;durP1;ratioP1;P2;durP2;ratioP2
11481;SDS011;5797;51.662;6.748;2024-01-11T00:01:17;34.80;;;16.17;;
11481;SDS011;5797;51.662;6.748;2024-01-11T00:03:46;42.60;;;17.43;;
11481;SDS011;5797;51.662;6.748;2024-01-11T00:06:14;39.40;;;15.77;;
11481;SDS011;5797;51.662;6.748;2024-01-11T00:08:43;36.50;;;15.80;;
11481;SDS011;5797;51.662;6.748;2024-01-11T00:11:11;35.33;;;16.27;;
11481;SDS011;5797;51.662;6.748;2024-01-11T00:13:43;36.90;;;16.97;;
11481;SDS011;5797;51.662;6.748;2024-01-11T00:16:12;37.97;;;16.37;;
11481;SDS011;5797;51.662;6.748;2024-01-11T00:18:40;40.03;;;17.57;;
11481;SDS011;5797;51.662;6.748;2024-01-11T00:21:09;35.70;;;17.53;;
11481;SDS011;5797;51.662;6.748;2024-01-11T00:23:37;35.80;;;17.13;;
11481;SDS011;5797;51.662;6.748;2024-01-11T00:26:05;40.23;;;16.50;;
11481;SDS011;5797;51.662;6.748;2024-01-11T00:28:34;32.57;;;16.90;;
11481;SDS011;5797;51.662;6.748;2024-01-11T00:31:04;40.20;;;15.93;;
11481;SDS011;5797;51.662;6.748;2024-01-11T00:33:32;38.73;;;16.80;;
11481;SDS011;5797;51.662;6.748;2024-01-11T00:36:01;38.90;;;16.67;;
11481;SDS011;5797;51.662;6.748;2024-01-11T00:38:29;39.20;;;17.00;;
11481;SDS011;5797;51.662;6.748;2024-01-11T00:40:57;36.37;;;17.50;;
11481;SDS011;5797;51.662;6.748;2024-01-11T00:43:26;39.83;;;16.20;;
11481;SDS011;5797;51.662;6.748;2024-01-11T00:45:54;39.53;;;17.43;;
11481;SDS011;5797;51.662;6.748;2024-01-11T00:48:24;35.40;;;16.03;;
11481;SDS011;5797;51.662;6.748;2024-01-11T00:50:53;38.70;;;17.47;;
11481;SDS011;5797;51.662;6.748;2024-01-11T00:53:21;38.10;;;16.37;;
11481;SDS011;5797;51.662;6.748;2024-01-11T00:55:50;39.30;;;17.20;;
11481;SDS011;5797;51.662;6.748;2024-01-11T00:58:19;43.50;;;17.80;;
11481;SDS011;5797;51.662;6.748;2024-01-11T01:00:47;36.13;;;15.97;;
11481;SDS011;5797;51.662;6.748;2024-01-11T01:03:16;36.93;;;16.10;;
11481;SDS011;5797;51.662;6.748;2024-01-11T01:05:45;33.97;;;16.23;;
11481;SDS011;5797;51.662;6.748;2024-01-11T01:08:14;33.57;;;15.77;;
11481;SDS011;5797;51.662;6.748;2024-01-11T01:10:42;37.83;;;16.10;;
11481;SDS011;5797;51.662;6.748;2024-01-11T01:13:11;37.23;;;17.30;;
11481;SDS011;5797;51.662;6.748;2024-01-11T01:15:39;33.93;;;16.97;;
11481;SDS011;5797;51.662;6.748;2024-01-11T01:18:07;37.10;;;16.60;;
11481;SDS011;5797;51.662;6.748;2024-01-11T01:20:36;37.73;;;15.93;;
11481;SDS011;5797;51.662;6.748;2024-01-11T01:23:06;36.67;;;16.53;;
11481;SDS011;5797;51.662;6.748;2024-01-11T01:25:34;32.33;;;16.00;;
11481;SDS011;5797;51.662;6.748;2024-01-11T01:28:03;36.80;;;16.47;;
11481;SDS011;5797;51.662;6.748;2024-01-11T01:30:31;42.70;;;18.13;;
11481;SDS011;5797;51.662;6.748;2024-01-11T01:33:00;46.07;;;18.67;;
11481;SDS011;5797;51.662;6.748;2024-01-11T01:35:28;32.83;;;17.33;;
11481;SDS011;5797;51.662;6.748;2024-01-11T01:37:57;36.27;;;16.90;;
11481;SDS011;5797;51.662;6.748;2024-01-11T01:40:27;30.70;;;15.30;;
11481;SDS011;5797;51.662;6.748;2024-01-11T01:42:57;38.77;;;15.73;;
11481;SDS011;5797;51.662;6.748;2024-01-11T01:45:26;35.23;;;15.03;;
11481;SDS011;5797;51.662;6.748;2024-01-11T01:47:55;34.20;;;16.47;;
11481;SDS011;5797;51.662;6.748;2024-01-11T01:50:23;40.60;;;18.00;;
11481;SDS011;5797;51.662;6.748;2024-01-11T01:52:52;36.23;;;17.73;;
11481;SDS011;5797;51.662;6.748;2024-01-11T01:55:21;38.30;;;17.57;;
11481;SDS011;5797;51.662;6.748;2024-01-11T01:57:51;43.77;;;17.93;;
11481;SDS011;5797;51.662;6.748;2024-01-11T02:00:20;37.57;;;17.47;;
11481;SDS011;5797;51.662;6.748;2024-01-11T02:02:50;41.87;;;17.77;;
11481;SDS011;5797;51.662;6.748;2024-01-11T02:05:19;43.93;;;16.80;;
11481;SDS011;5797;51.662;6.748;2024-01-11T02:07:47;41.27;;;18.33;;
11481;SDS011;5797;51.662;6.748;2024-01-11T02:10:16;37.03;;;15.90;;
11481;SDS011;5797;51.662;6.748;2024-01-11T02:12:44;40.50;;;18.07;;
11481;SDS011;5797;51.662;6.748;2024-01-11T02:15:14;41.87;;;17.83;;
11481;SDS011;5797;51.662;6.748;2024-01-11T02:17:43;44.07;;;18.13;;
11481;SDS011;5797;51.662;6.748;2024-01-11T02:20:12;44.70;;;17.77;;
11481;SDS011;5797;51.662;6.748;2024-01-11T02:22:41;36.40;;;16.50;;
11481;SDS011;5797;51.662;6.748;2024-01-11T02:25:13;36.07;;;16.63;;
11481;SDS011;5797;51.662;6.748;2024-01-11T02:27:44;39.37;;;17.10;;
11481;SDS011;5797;51.662;6.748;2024-01-11T02:30:14;39.30;;;17.60;;
11481;SDS011;5797;51.662;6.748;2024-01-11T02:32:43;36.10;;;15.30;;
11481;SDS011;5797;51.662;6.748;2024-01-11T02:35:13;39.43;;;16.30;;
11481;SDS011;5797;51.662;6.748;2024-01-11T02:37:43;38.90;;;16.93;;
11481;SDS011;5797;51.662;6.748;2024-01-11T02:40:13;41.47;;;16.57;;
11481;SDS011;5797;51.662;6.748;2024-01-11T02:42:42;37.53;;;16.40;;
11481;SDS011;5797;51.662;6.748;2024-01-11T02:45:11;35.50;;;15.57;;
11481;SDS011;5797;51.662;6.748;2024-01-11T02:47:40;41.00;;;16.57;;
11481;SDS011;5797;51.662;6.748;2024-01-11T02:50:08;33.43;;;15.97;;
11481;SDS011;5797;51.662;6.748;2024-01-11T02:52:38;38.10;;;16.90;;
11481;SDS011;5797;51.662;6.748;2024-01-11T02:55:07;41.60;;;17.50;;
11481;SDS011;5797;51.662;6.748;2024-01-11T02:57:37;37.00;;;16.80;;
11481;SDS011;5797;51.662;6.748;2024-01-11T03:00:06;43.90;;;18.20;;
11481;SDS011;5797;51.662;6.748;2024-01-11T03:02:36;44.20;;;18.67;;
11481;SDS011;5797;51.662;6.748;2024-01-11T03:05:05;40.83;;;17.27;;
11481;SDS011;5797;51.662;6.748;2024-01-11T03:07:34;37.67;;;17.87;;
11481;SDS011;5797;51.662;6.748;2024-01-11T03:10:02;38.17;;;18.20;;
11481;SDS011;5797;51.662;6.748;2024-01-11T03:12:32;41.20;;;17.73;;
11481;SDS011;5797;51.662;6.748;2024-01-11T03:15:02;43.03;;;19.60;;
11481;SDS011;5797;51.662;6.748;2024-01-11T03:17:31;41.23;;;17.90;;
11481;SDS011;5797;51.662;6.748;2024-01-11T03:20:00;40.13;;;18.20;;
11481;SDS011;5797;51.662;6.748;2024-01-11T03:22:30;39.03;;;19.20;;
11481;SDS011;5797;51.662;6.748;2024-01-11T03:24:58;44.93;;;19.13;;
11481;SDS011;5797;51.662;6.748;2024-01-11T03:27:27;39.40;;;17.60;;
11481;SDS011;5797;51.662;6.748;2024-01-11T03:29:55;38.70;;;18.37;;
11481;SDS011;5797;51.662;6.748;2024-01-11T03:32:25;42.07;;;19.80;;
11481;SDS011;5797;51.662;6.748;2024-01-11T03:34:53;40.40;;;19.53;;
11481;SDS011;5797;51.662;6.748;2024-01-11T03:37:22;38.53;;;17.93;;
11481;SDS011;5797;51.662;6.748;2024-01-11T03:39:50;46.67;;;18.50;;
11481;SDS011;5797;51.662;6.748;2024-01-11T03:42:18;38.93;;;18.67;;
11481;SDS011;5797;51.662;6.748;2024-01-11T03:44:47;39.83;;;18.83;;
11481;SDS011;5797;51.662;6.748;2024-01-11T03:47:15;41.90;;;19.37;;
11481;SDS011;5797;51.662;6.748;2024-01-11T03:49:45;46.37;;;20.20;;
11481;SDS011;5797;51.662;6.748;2024-01-11T03:52:13;35.97;;;18.50;;
11481;SDS011;5797;51.662;6.748;2024-01-11T03:54:41;38.00;;;18.50;;
11481;SDS011;5797;51.662;6.748;2024-01-11T03:57:10;40.23;;;18.60;;
11481;SDS011;5797;51.662;6.748;2024-01-11T03:59:38;41.17;;;18.73;;
11481;SDS011;5797;51.662;6.748;2024-01-11T04:02:08;39.53;;;19.63;;
11481;SDS011;5797;51.662;6.748;2024-01-11T04:04:37;45.40;;;20.10;;
11481;SDS011;5797;51.662;6.748;2024-01-11T04:07:07;46.93;;;20.43;;
11481;SDS011;5797;51.662;6.748;2024-01-11T04:09:36;42.00;;;19.23;;
11481;SDS011;5797;51.662;6.748;2024-01-11T04:12:05;45.30;;;18.43;;
11481;SDS011;5797;51.662;6.748;2024-01-11T04:14:37;46.87;;;20.40;;
11481;SDS011;5797;51.662;6.748;2024-01-11T04:17:06;40.20;;;19.10;;
11481;SDS011;5797;51.662;6.748;2024-01-11T04:19:35;42.63;;;19.33;;
11481;SDS011;5797;51.662;6.748;2024-01-11T04:22:03;41.27;;;18.97;;
11481;SDS011;5797;51.662;6.748;2024-01-11T04:24:33;42.23;;;18.97;;
11481;SDS011;5797;51.662;6.748;2024-01-11T04:27:01;38.07;;;17.83;;
11481;SDS011;5797;51.662;6.748;2024-01-11T04:29:30;47.67;;;19.73;;
11481;SDS011;5797;51.662;6.748;2024-01-11T04:31:59;38.00;;;18.60;;
11481;SDS011;5797;51.662;6.748;2024-01-11T04:34:28;41.37;;;20.40;;
11481;SDS011;5797;51.662;6.748;2024-01-11T04:36:57;44.03;;;19.20;;
11481;SDS011;5797;51.662;6.748;2024-01-11T04:39:25;46.37;;;18.07;;
11481;SDS011;5797;51.662;6.748;2024-01-11T04:41:55;37.07;;;17.77;;
11481;SDS011;5797;51.662;6.748;2024-01-11T04:44:23;60.97;;;26.33;;
11481;SDS011;5797;51.662;6.748;2024-01-11T04:46:54;118.33;;;44.40;;
11481;SDS011;5797;51.662;6.748;2024-01-11T04:49:22;123.10;;;47.57;;
11481;SDS011;5797;51.662;6.748;2024-01-11T04:51:50;129.83;;;48.53;;
11481;SDS011;5797;51.662;6.748;2024-01-11T04:54:19;99.27;;;39.77;;
11481;SDS011;5797;51.662;6.748;2024-01-11T04:56:47;65.00;;;31.20;;
11481;SDS011;5797;51.662;6.748;2024-01-11T04:59:18;63.93;;;27.77;;
11481;SDS011;5797;51.662;6.748;2024-01-11T05:01:46;52.63;;;26.43;;
11481;SDS011;5797;51.662;6.748;2024-01-11T05:04:14;46.80;;;23.17;;
11481;SDS011;5797;51.662;6.748;2024-01-11T05:06:43;38.13;;;20.03;;
11481;SDS011;5797;51.662;6.748;2024-01-11T05:09:11;43.93;;;21.23;;
11481;SDS011;5797;51.662;6.748;2024-01-11T05:11:41;41.07;;;18.77;;
11481;SDS011;5797;51.662;6.748;2024-01-11T05:14:10;42.80;;;19.83;;
11481;SDS011;5797;51.662;6.748;2024-01-11T05:16:39;39.93;;;18.87;;
11481;SDS011;5797;51.662;6.748;2024-01-11T05:19:08;47.53;;;22.77;;
11481;SDS011;5797;51.662;6.748;2024-01-11T05:21:37;53.27;;;25.93;;
11481;SDS011;5797;51.662;6.748;2024-01-11T05:24:05;49.77;;;23.23;;
11481;SDS011;5797;51.662;6.748;2024-01-11T05:26:36;45.23;;;21.17;;
11481;SDS011;5797;51.662;6.748;2024-01-11T05:29:05;44.43;;;21.07;;
11481;SDS011;5797;51.662;6.748;2024-01-11T05:31:33;43.97;;;20.17;;
11481;SDS011;5797;51.662;6.748;2024-01-11T05:34:03;46.90;;;21.27;;
11481;SDS011;5797;51.662;6.748;2024-01-11T05:36:32;40.20;;;19.57;;
11481;SDS011;5797;51.662;6.748;2024-01-11T05:39:00;43.03;;;19.93;;
11481;SDS011;5797;51.662;6.748;2024-01-11T05:41:29;38.93;;;18.90;;
11481;SDS011;5797;51.662;6.748;2024-01-11T05:43:57;38.77;;;18.97;;
11481;SDS011;5797;51.662;6.748;2024-01-11T05:46:26;44.03;;;19.67;;
11481;SDS011;5797;51.662;6.748;2024-01-11T05:48:55;39.97;;;19.70;;
11481;SDS011;5797;51.662;6.748;2024-01-11T05:51:25;43.20;;;19.70;;
11481;SDS011;5797;51.662;6.748;2024-01-11T05:53:54;39.17;;;18.93;;
11481;SDS011;5797;51.662;6.748;2024-01-11T05:56:22;37.00;;;18.43;;
11481;SDS011;5797;51.662;6.748;2024-01-11T05:58:50;34.80;;;16.83;;
11481;SDS011;5797;51.662;6.748;2024-01-11T06:01:19;42.23;;;17.47;;
11481;SDS011;5797;51.662;6.748;2024-01-11T06:03:48;41.47;;;18.50;;
11481;SDS011;5797;51.662;6.748;2024-01-11T06:06:16;39.47;;;18.83;;
11481;SDS011;5797;51.662;6.748;2024-01-11T06:08:47;40.53;;;19.83;;
11481;SDS011;5797;51.662;6.748;2024-01-11T06:11:15;39.87;;;18.30;;
11481;SDS011;5797;51.662;6.748;2024-01-11T06:13:45;45.03;;;18.60;;
11481;SDS011;5797;51.662;6.748;2024-01-11T06:16:14;36.00;;;19.17;;
11481;SDS011;5797;51.662;6.748;2024-01-11T06:18:42;44.83;;;19.83;;
11481;SDS011;5797;51.662;6.748;2024-01-11T06:21:11;39.73;;;17.00;;
11481;SDS011;5797;51.662;6.748;2024-01-11T06:23:40;38.17;;;17.40;;
11481;SDS011;5797;51.662;6.748;2024-01-11T06:26:10;42.90;;;18.87;;
11481;SDS011;5797;51.662;6.748;2024-01-11T06:28:38;41.83;;;18.33;;
11481;SDS011;5797;51.662;6.748;2024-01-11T06:31:07;39.27;;;18.20;;
11481;SDS011;5797;51.662;6.748;2024-01-11T06:33:39;40.90;;;19.93;;
11481;SDS011;5797;51.662;6.748;2024-01-11T06:36:07;39.37;;;19.63;;
11481;SDS011;5797;51.662;6.748;2024-01-11T06:38:35;39.83;;;18.43;;
11481;SDS011;5797;51.662;6.748;2024-01-11T06:41:04;43.20;;;17.90;;
11481;SDS011;5797;51.662;6.748;2024-01-11T06:43:34;37.67;;;18.30;;
11481;SDS011;5797;51.662;6.748;2024-01-11T06:46:03;36.60;;;19.47;;
11481;SDS011;5797;51.662;6.748;2024-01-11T06:48:32;40.67;;;18.03;;
11481;SDS011;5797;51.662;6.748;2024-01-11T06:51:00;41.87;;;18.60;;
11481;SDS011;5797;51.662;6.748;2024-01-11T06:53:29;39.03;;;18.03;;
11481;SDS011;5797;51.662;6.748;2024-01-11T06:55:57;43.63;;;19.50;;
11481;SDS011;5797;51.662;6.748;2024-01-11T06:58:26;39.63;;;18.07;;
11481;SDS011;5797;51.662;6.748;2024-01-11T07:00:56;42.43;;;18.93;;
11481;SDS011;5797;51.662;6.748;2024-01-11T07:03:25;46.67;;;20.23;;
11481;SDS011;5797;51.662;6.748;2024-01-11T07:05:53;42.00;;;19.50;;
11481;SDS011;5797;51.662;6.748;2024-01-11T07:08:22;41.97;;;19.17;;
11481;SDS011;5797;51.662;6.748;2024-01-11T07:10:50;38.83;;;19.07;;
11481;SDS011;5797;51.662;6.748;2024-01-11T07:13:19;49.40;;;20.50;;
11481;SDS011;5797;51.662;6.748;2024-01-11T07:15:47;44.73;;;20.60;;
11481;SDS011;5797;51.662;6.748;2024-01-11T07:18:17;42.57;;;20.50;;
11481;SDS011;5797;51.662;6.748;2024-01-11T07:20:46;42.13;;;20.20;;
11481;SDS011;5797;51.662;6.748;2024-01-11T07:23:15;40.60;;;18.87;;
11481;SDS011;5797;51.662;6.748;2024-01-11T07:25:43;43.37;;;20.53;;
11481;SDS011;5797;51.662;6.748;2024-01-11T07:28:11;45.00;;;20.63;;
11481;SDS011;5797;51.662;6.748;2024-01-11T07:30:40;45.17;;;19.97;;
11481;SDS011;5797;51.662;6.748;2024-01-11T07:33:08;42.67;;;19.67;;
11481;SDS011;5797;51.662;6.748;2024-01-11T07:35:40;45.47;;;19.13;;
11481;SDS011;5797;51.662;6.748;2024-01-11T07:38:08;44.57;;;21.57;;
11481;SDS011;5797;51.662;6.748;2024-01-11T07:40:37;54.80;;;22.43;;
11481;SDS011;5797;51.662;6.748;2024-01-11T07:43:08;46.07;;;20.97;;
11481;SDS011;5797;51.662;6.748;2024-01-11T07:45:36;43.23;;;19.83;;
11481;SDS011;5797;51.662;6.748;2024-01-11T07:48:05;41.57;;;19.97;;
11481;SDS011;5797;51.662;6.748;2024-01-11T07:50:34;41.23;;;19.20;;
11481;SDS011;5797;51.662;6.748;2024-01-11T07:53:04;41.97;;;19.50;;
11481;SDS011;5797;51.662;6.748;2024-01-11T07:55:33;39.43;;;19.73;;
11481;SDS011;5797;51.662;6.748;2024-01-11T07:58:01;40.83;;;19.83;;
11481;SDS011;5797;51.662;6.748;2024-01-11T08:00:30;41.83;;;20.37;;
11481;SDS011;5797;51.662;6.748;2024-01-11T08:02:59;49.53;;;21.03;;
11481;SDS011;5797;51.662;6.748;2024-01-11T08:05:27;46.27;;;20.57;;
11481;SDS011;5797;51.662;6.748;2024-01-11T08:07:56;44.97;;;19.60;;
11481;SDS011;5797;51.662;6.748;2024-01-11T08:10:29;43.70;;;21.03;;
11481;SDS011;5797;51.662;6.748;2024-01-11T08:12:58;42.80;;;20.43;;
11481;SDS011;5797;51.662;6.748;2024-01-11T08:15:27;38.07;;;19.60;;
11481;SDS011;5797;51.662;6.748;2024-01-11T08:17:55;39.70;;;19.60;;
11481;SDS011;5797;51.662;6.748;2024-01-11T08:20:24;43.67;;;20.57;;
11481;SDS011;5797;51.662;6.748;2024-01-11T08:22:52;39.87;;;19.20;;
11481;SDS011;5797;51.662;6.748;2024-01-11T08:25:20;40.27;;;20.40;;
11481;SDS011;5797;51.662;6.748;2024-01-11T08:27:51;42.50;;;19.87;;
11481;SDS011;5797;51.662;6.748;2024-01-11T08:30:20;43.03;;;18.77;;
11481;SDS011;5797;51.662;6.748;2024-01-11T08:32:48;40.80;;;18.73;;
11481;SDS011;5797;51.662;6.748;2024-01-11T08:35:17;40.53;;;18.30;;
11481;SDS011;5797;51.662;6.748;2024-01-11T08:37:45;41.27;;;19.37;;
11481;SDS011;5797;51.662;6.748;2024-01-11T08:40:14;38.57;;;18.47;;
11481;SDS011;5797;51.662;6.748;2024-01-11T08:42:42;42.53;;;19.07;;
11481;SDS011;5797;51.662;6.748;2024-01-11T08:45:12;34.07;;;16.67;;
11481;SDS011;5797;51.662;6.748;2024-01-11T08:47:44;43.00;;;17.97;;
11481;SDS011;5797;51.662;6.748;2024-01-11T08:50:13;34.37;;;17.10;;
11481;SDS011;5797;51.662;6.748;2024-01-11T08:52:43;38.13;;;17.67;;
11481;SDS011;5797;51.662;6.748;2024-01-11T08:55:11;39.70;;;16.90;;
11481;SDS011;5797;51.662;6.748;2024-01-11T08:57:40;31.33;;;14.97;;
11481;SDS011;5797;51.662;6.748;2024-01-11T09:00:09;31.07;;;17.60;;
11481;SDS011;5797;51.662;6.748;2024-01-11T09:02:44;33.37;;;17.13;;
11481;SDS011;5797;51.662;6.748;2024-01-11T09:05:13;33.17;;;15.37;;
11481;SDS011;5797;51.662;6.748;2024-01-11T09:07:42;35.33;;;18.50;;
11481;SDS011;5797;51.662;6.748;2024-01-11T09:10:11;33.57;;;16.73;;
11481;SDS011;5797;51.662;6.748;2024-01-11T09:12:39;30.83;;;16.77;;
11481;SDS011;5797;51.662;6.748;2024-01-11T09:15:08;40.80;;;18.00;;
11481;SDS011;5797;51.662;6.748;2024-01-11T09:17:38;36.43;;;17.83;;
11481;SDS011;5797;51.662;6.748;2024-01-11T09:20:07;34.03;;;16.47;;
11481;SDS011;5797;51.662;6.748;2024-01-11T09:22:41;37.70;;;17.73;;
11481;SDS011;5797;51.662;6.748;2024-01-11T09:25:09;39.47;;;18.23;;
11481;SDS011;5797;51.662;6.748;2024-01-11T09:27:38;32.70;;;18.03;;
11481;SDS011;5797;51.662;6.748;2024-01-11T09:30:07;40.57;;;19.37;;
11481;SDS011;5797;51.662;6.748;2024-01-11T09:32:36;36.77;;;17.67;;
11481;SDS011;5797;51.662;6.748;2024-01-11T09:35:06;33.83;;;16.57;;
11481;SDS011;5797;51.662;6.748;2024-01-11T09:37:37;32.90;;;16.50;;
11481;SDS011;5797;51.662;6.748;2024-01-11T09:40:06;35.67;;;16.37;;
11481;SDS011;5797;51.662;6.748;2024-01-11T09:42:38;36.43;;;17.77;;
11481;SDS011;5797;51.662;6.748;2024-01-11T09:45:07;35.27;;;16.33;;
11481;SDS011;5797;51.662;6.748;2024-01-11T09:47:38;39.17;;;17.43;;
11481;SDS011;5797;51.662;6.748;2024-01-11T09:50:07;33.63;;;16.07;;
11481;SDS011;5797;51.662;6.748;2024-01-11T09:52:37;34.97;;;16.93;;
11481;SDS011;5797;51.662;6.748;2024-01-11T09:55:07;39.23;;;18.83;;
11481;SDS011;5797;51.662;6.748;2024-01-11T09:57:35;41.40;;;18.33;;
11481;SDS011;5797;51.662;6.748;2024-01-11T10:00:05;37.50;;;17.57;;
11481;SDS011;5797;51.662;6.748;2024-01-11T10:02:35;35.83;;;17.27;;
11481;SDS011;5797;51.662;6.748;2024-01-11T10:05:06;40.17;;;17.97;;
11481;SDS011;5797;51.662;6.748;2024-01-11T10:07:35;38.20;;;17.53;;
11481;SDS011;5797;51.662;6.748;2024-01-11T10:10:04;33.83;;;17.00;;
11481;SDS011;5797;51.662;6.748;2024-01-11T10:12:34;42.13;;;19.20;;
11481;SDS011;5797;51.662;6.748;2024-01-11T10:15:05;38.10;;;17.30;;
11481;SDS011;5797;51.662;6.748;2024-01-11T10:17:36;34.10;;;17.43;;
11481;SDS011;5797;51.662;6.748;2024-01-11T10:20:07;36.90;;;17.27;;
11481;SDS011;5797;51.662;6.748;2024-01-11T10:22:38;35.30;;;16.53;;
11481;SDS011;5797;51.662;6.748;2024-01-11T10:25:08;33.70;;;16.83;;
11481;SDS011;5797;51.662;6.748;2024-01-11T10:27:39;35.77;;;18.73;;
11481;SDS011;5797;51.662;6.748;2024-01-11T10:30:09;38.37;;;17.90;;
11481;SDS011;5797;51.662;6.748;2024-01-11T10:32:40;36.33;;;16.47;;
11481;SDS011;5797;51.662;6.748;2024-01-11T10:35:10;35.03;;;17.77;;
11481;SDS011;5797;51.662;6.748;2024-01-11T10:37:38;37.77;;;16.80;;
11481;SDS011;5797;51.662;6.748;2024-01-11T10:40:07;35.63;;;16.33;;
11481;SDS011;5797;51.662;6.748;2024-01-11T10:42:39;34.43;;;16.17;;
11481;SDS011;5797;51.662;6.748;2024-01-11T10:45:10;32.37;;;15.73;;
11481;SDS011;5797;51.662;6.748;2024-01-11T10:47:49;31.43;;;16.40;;
11481;SDS011;5797;51.662;6.748;2024-01-11T10:50:21;31.83;;;15.40;;
11481;SDS011;5797;51.662;6.748;2024-01-11T10:52:54;35.30;;;16.50;;
11481;SDS011;5797;51.662;6.748;2024-01-11T10:55:28;39.17;;;16.23;;
11481;SDS011;5797;51.662;6.748;2024-01-11T10:57:59;27.20;;;14.97;;
11481;SDS011;5797;51.662;6.748;2024-01-11T11:00:28;29.73;;;14.47;;
11481;SDS011;5797;51.662;6.748;2024-01-11T11:02:58;30.87;;;14.17;;
11481;SDS011;5797;51.662;6.748;2024-01-11T11:05:29;33.47;;;15.53;;
11481;SDS011;5797;51.662;6.748;2024-01-11T11:07:58;32.03;;;14.67;;
11481;SDS011;5797;51.662;6.748;2024-01-11T11:10:30;30.73;;;14.80;;
11481;SDS011;5797;51.662;6.748;2024-01-11T11:12:59;32.13;;;14.43;;
11481;SDS011;5797;51.662;6.748;2024-01-11T11:15:29;30.33;;;14.03;;
11481;SDS011;5797;51.662;6.748;2024-01-11T11:17:57;30.20;;;14.57;;
11481;SDS011;5797;51.662;6.748;2024-01-11T11:20:26;29.70;;;14.33;;
11481;SDS011;5797;51.662;6.748;2024-01-11T11:23:05;32.27;;;14.27;;
11481;SDS011;5797;51.662;6.748;2024-01-11T11:25:35;30.93;;;14.30;;
11481;SDS011;5797;51.662;6.748;2024-01-11T11:28:05;26.07;;;14.70;;
11481;SDS011;5797;51.662;6.748;2024-01-11T11:30:36;32.23;;;14.93;;
11481;SDS011;5797;51.662;6.748;2024-01-11T11:33:09;31.67;;;13.47;;
11481;SDS011;5797;51.662;6.748;2024-01-11T11:35:38;28.40;;;13.60;;
11481;SDS011;5797;51.662;6.748;2024-01-11T11:38:09;23.50;;;12.27;;
11481;SDS011;5797;51.662;6.748;2024-01-11T11:40:46;30.73;;;13.33;;
11481;SDS011;5797;51.662;6.748;2024-01-11T11:43:16;29.30;;;14.60;;
11481;SDS011;5797;51.662;6.748;2024-01-11T11:45:45;28.47;;;13.83;;
11481;SDS011;5797;51.662;6.748;2024-01-11T11:51:18;25.00;;;13.67;;
11481;SDS011;5797;51.662;6.748;2024-01-11T11:53:49;24.53;;;13.57;;
11481;SDS011;5797;51.662;6.748;2024-01-11T11:56:19;27.10;;;12.37;;
11481;SDS011;5797;51.662;6.748;2024-01-11T11:58:49;32.10;;;14.63;;
11481;SDS011;5797;51.662;6.748;2024-01-11T12:01:19;28.87;;;13.33;;
11481;SDS011;5797;51.662;6.748;2024-01-11T12:03:47;31.53;;;14.37;;
11481;SDS011;5797;51.662;6.748;2024-01-11T12:06:17;31.00;;;14.00;;
11481;SDS011;5797;51.662;6.748;2024-01-11T12:08:48;27.53;;;13.77;;
11481;SDS011;5797;51.662;6.748;2024-01-11T12:11:20;31.27;;;13.50;;
11481;SDS011;5797;51.662;6.748;2024-01-11T12:13:49;29.17;;;13.27;;
11481;SDS011;5797;51.662;6.748;2024-01-11T12:16:20;28.30;;;13.33;;
11481;SDS011;5797;51.662;6.748;2024-01-11T12:18:48;27.67;;;13.20;;
11481;SDS011;5797;51.662;6.748;2024-01-11T12:21:17;27.80;;;13.50;;
11481;SDS011;5797;51.662;6.748;2024-01-11T12:23:47;30.73;;;13.40;;
11481;SDS011;5797;51.662;6.748;2024-01-11T12:26:18;25.37;;;12.93;;
11481;SDS011;5797;51.662;6.748;2024-01-11T12:28:49;27.70;;;12.77;;
11481;SDS011;5797;51.662;6.748;2024-01-11T12:31:18;26.40;;;13.20;;
11481;SDS011;5797;51.662;6.748;2024-01-11T12:33:47;26.73;;;11.40;;
11481;SDS011;5797;51.662;6.748;2024-01-11T12:36:16;23.10;;;11.67;;
11481;SDS011;5797;51.662;6.748;2024-01-11T12:38:47;27.23;;;11.47;;
11481;SDS011;5797;51.662;6.748;2024-01-11T12:41:19;19.17;;;9.90;;
11481;SDS011;5797;51.662;6.748;2024-01-11T12:43:49;22.13;;;11.10;;
11481;SDS011;5797;51.662;6.748;2024-01-11T12:46:17;23.37;;;11.23;;
11481;SDS011;5797;51.662;6.748;2024-01-11T12:48:46;27.07;;;11.87;;
11481;SDS011;5797;51.662;6.748;2024-01-11T12:51:15;24.13;;;10.90;;
11481;SDS011;5797;51.662;6.748;2024-01-11T12:53:46;21.90;;;10.87;;
11481;SDS011;5797;51.662;6.748;2024-01-11T12:56:15;21.73;;;10.70;;
11481;SDS011;5797;51.662;6.748;2024-01-11T12:58:46;21.33;;;11.40;;
11481;SDS011;5797;51.662;6.748;2024-01-11T13:01:14;22.40;;;10.93;;
11481;SDS011;5797;51.662;6.748;2024-01-11T13:03:44;19.30;;;10.33;;
11481;SDS011;5797;51.662;6.748;2024-01-11T13:06:14;19.23;;;10.20;;
11481;SDS011;5797;51.662;6.748;2024-01-11T13:08:44;22.30;;;10.67;;
11481;SDS011;5797;51.662;6.748;2024-01-11T13:11:13;19.93;;;9.83;;
11481;SDS011;5797;51.662;6.748;2024-01-11T13:13:43;21.60;;;9.73;;
11481;SDS011;5797;51.662;6.748;2024-01-11T13:16:15;17.90;;;9.00;;
11481;SDS011;5797;51.662;6.748;2024-01-11T13:18:43;19.23;;;9.87;;
11481;SDS011;5797;51.662;6.748;2024-01-11T13:21:12;19.37;;;8.33;;
11481;SDS011;5797;51.662;6.748;2024-01-11T13:23:40;19.30;;;8.93;;
11481;SDS011;5797;51.662;6.748;2024-01-11T13:26:09;17.00;;;8.70;;
11481;SDS011;5797;51.662;6.748;2024-01-11T13:28:38;15.57;;;8.57;;
11481;SDS011;5797;51.662;6.748;2024-01-11T13:31:09;16.23;;;7.73;;
11481;SDS011;5797;51.662;6.748;2024-01-11T13:33:37;15.17;;;7.87;;
11481;SDS011;5797;51.662;6.748;2024-01-11T13:36:07;13.17;;;6.60;;
11481;SDS011;5797;51.662;6.748;2024-01-11T13:38:36;13.90;;;8.20;;
11481;SDS011;5797;51.662;6.748;2024-01-11T13:41:04;13.03;;;6.70;;
11481;SDS011;5797;51.662;6.748;2024-01-11T13:43:35;14.87;;;6.27;;
11481;SDS011;5797;51.662;6.748;2024-01-11T13:46:03;13.40;;;6.97;;
11481;SDS011;5797;51.662;6.748;2024-01-11T13:48:33;12.53;;;6.27;;
11481;SDS011;5797;51.662;6.748;2024-01-11T13:51:02;11.90;;;4.87;;
11481;SDS011;5797;51.662;6.748;2024-01-11T13:53:31;7.03;;;3.57;;
11481;SDS011;5797;51.662;6.748;2024-01-11T13:56:00;7.97;;;4.03;;
11481;SDS011;5797;51.662;6.748;2024-01-11T13:58:28;6.70;;;3.53;;
11481;SDS011;5797;51.662;6.748;2024-01-11T14:00:57;6.33;;;3.33;;
11481;SDS011;5797;51.662;6.748;2024-01-11T14:03:26;7.07;;;3.40;;
11481;SDS011;5797;51.662;6.748;2024-01-11T14:05:56;8.00;;;3.90;;
11481;SDS011;5797;51.662;6.748;2024-01-11T14:08:24;8.07;;;3.97;;
11481;SDS011;5797;51.662;6.748;2024-01-11T14:10:53;6.27;;;3.13;;
11481;SDS011;5797;51.662;6.748;2024-01-11T14:13:22;5.07;;;3.17;;
11481;SDS011;5797;51.662;6.748;2024-01-11T14:15:50;6.37;;;3.00;;
11481;SDS011;5797;51.662;6.748;2024-01-11T14:18:20;5.23;;;3.63;;
11481;SDS011;5797;51.662;6.748;2024-01-11T14:20:49;6.43;;;3.20;;
11481;SDS011;5797;51.662;6.748;2024-01-11T14:23:19;6.20;;;2.93;;
11481;SDS011;5797;51.662;6.748;2024-01-11T14:25:47;6.70;;;3.77;;
11481;SDS011;5797;51.662;6.748;2024-01-11T14:28:16;5.20;;;2.83;;
11481;SDS011;5797;51.662;6.748;2024-01-11T14:30:45;6.60;;;2.77;;
11481;SDS011;5797;51.662;6.748;2024-01-11T14:33:13;5.77;;;3.33;;
11481;SDS011;5797;51.662;6.748;2024-01-11T14:35:42;5.20;;;3.03;;
11481;SDS011;5797;51.662;6.748;2024-01-11T14:38:11;5.23;;;3.13;;
11481;SDS011;5797;51.662;6.748;2024-01-11T14:40:41;5.40;;;2.87;;
11481;SDS011;5797;51.662;6.748;2024-01-11T14:43:09;5.03;;;2.83;;
11481;SDS011;5797;51.662;6.748;2024-01-11T14:45:38;6.93;;;3.03;;
11481;SDS011;5797;51.662;6.748;2024-01-11T14:48:06;5.53;;;2.70;;
11481;SDS011;5797;51.662;6.748;2024-01-11T14:50:35;6.57;;;2.70;;